Time;durP1;ratioP1;P1;durP2;ratioP2;P2;SDS_P1;SDS_P2;PMS_P1;PMS_P2;Temp;Humidity;BMP_temperature;BMP_pressure;BME280_temperature;BME280_humidity;BME280_pressure;Samples;Min_cycle;Max_cycle;Signal;HPM_P1;HPM_P2
2022/11/03 00:04:11;;;;;;;6.22;0.60;;;;;;;11.96;76.68;98998.34;5042595;28;20417;-51
2022/11/03 00:06:39;;;;;;;4.47;0.45;;;;;;;11.97;75.89;99000.03;4995645;28;20482;-51
2022/11/03 00:09:08;;;;;;;2.50;0.70;;;;;;;11.96;75.20;99004.38;4998756;28;20057;-53
2022/11/03 00:11:37;;;;;;;8.80;0.73;;;;;;;11.95;76.07;98996.63;4999387;28;20539;-51
2022/11/03 00:14:05;;;;;;;4.90;0.70;;;;;;;11.95;76.57;98987.09;4999415;28;20070;-47
2022/11/03 00:16:32;;;;;;;4.55;0.68;;;;;;;11.95;76.49;98981.03;5003304;28;20088;-48
2022/11/03 00:18:59;;;;;;;6.15;0.98;;;;;;;11.93;75.70;98968.09;5001406;28;20092;-46
2022/11/03 00:21:26;;;;;;;6.10;0.95;;;;;;;11.93;76.09;98956.91;4998382;28;20173;-47
2022/11/03 00:23:53;;;;;;;5.25;0.80;;;;;;;11.94;75.78;98958.59;5000591;28;20061;-51
2022/11/03 00:26:23;;;;;;;7.78;0.93;;;;;;;11.93;76.68;98964.69;4998820;28;20046;-47
2022/11/03 00:28:51;;;;;;;;;;;;;;;11.76;76.21;98955.56;5001273;28;20092;-50
2022/11/03 00:31:23;;;;;;;8.63;2.42;;;;;;;11.87;75.36;98970.00;5000256;28;19976;-48
2022/11/03 00:33:50;;;;;;;4.93;0.63;;;;;;;11.87;75.86;98962.22;4994593;28;20125;-48
2022/11/03 00:36:21;;;;;;;3.95;0.80;;;;;;;11.89;75.56;98960.47;4999907;28;20132;-47
2022/11/03 00:38:47;;;;;;;6.40;0.73;;;;;;;11.85;76.08;98954.47;4996784;28;20046;-52
2022/11/03 00:41:15;;;;;;;8.20;0.80;;;;;;;11.89;75.84;98955.28;5000272;28;20061;-48
2022/11/03 00:43:42;;;;;;;5.75;0.70;;;;;;;11.88;75.94;98953.53;4996524;28;20166;-49
2022/11/03 00:46:09;;;;;;;6.20;1.02;;;;;;;11.86;75.80;98947.56;4995612;28;20687;-49
2022/11/03 00:48:37;;;;;;;2.85;0.63;;;;;;;11.86;75.67;98956.22;4996264;28;20488;-49
2022/11/03 00:51:10;;;;;;;5.25;0.75;;;;;;;11.81;75.54;98958.91;4983260;28;20080;-49
2022/11/03 00:56:18;;;;;;;4.75;1.13;;;;;;;11.87;76.62;98959.63;5047984;28;20429;-50
2022/11/03 00:58:45;;;;;;;9.20;1.55;;;;;;;11.86;76.25;98957.94;5020198;28;20045;-47
2022/11/03 01:01:15;;;;;;;6.75;0.50;;;;;;;11.77;76.11;98957.28;5031249;28;20056;-49
2022/11/03 01:06:48;;;;;;;2.17;0.52;;;;;;;11.87;76.55;98951.84;5016295;28;20061;-51
2022/11/03 01:06:49;;;;;;;6.72;0.98;;;;;;;11.86;76.55;98960.53;5027734;28;20128;-52
2022/11/03 01:09:38;;;;;;;5.65;1.00;;;;;;;11.83;76.52;98951.94;5017521;28;20152;-52
2022/11/03 01:12:16;;;;;;;7.22;1.23;;;;;;;11.83;76.46;98951.94;5027623;28;20083;-48
2022/11/03 01:14:46;;;;;;;10.45;0.95;;;;;;;11.86;76.94;98947.56;5017117;28;20042;-48
2022/11/03 01:17:19;;;;;;;3.30;1.15;;;;;;;11.88;76.83;98950.94;5025752;28;20148;-47
2022/11/03 01:19:47;;;;;;;8.57;0.98;;;;;;;11.90;75.72;98956.97;5015256;28;20133;-51
2022/11/03 01:22:16;;;;;;;4.78;0.60;;;;;;;11.91;76.38;98953.47;5014239;28;20088;-51
2022/11/03 01:24:45;;;;;;;6.50;0.80;;;;;;;11.89;76.45;98950.91;5026912;28;20048;-49
2022/11/03 01:27:16;;;;;;;5.90;0.88;;;;;;;11.90;76.87;98949.19;5013844;28;20050;-49
2022/11/03 01:29:44;;;;;;;4.53;0.95;;;;;;;11.88;75.73;98951.81;5013573;28;20049;-47
2022/11/03 01:32:11;;;;;;;7.72;1.13;;;;;;;11.86;75.71;98944.97;5014729;28;20049;-49
2022/11/03 01:34:39;;;;;;;7.68;0.75;;;;;;;11.87;76.87;98941.47;5016094;28;20053;-50
2022/11/03 01:37:07;;;;;;;12.13;1.17;;;;;;;11.88;75.83;98948.34;5013863;28;20058;-51
2022/11/03 01:39:35;;;;;;;6.53;0.70;;;;;;;11.87;75.98;98941.47;5014468;28;20053;-47
2022/11/03 01:42:03;;;;;;;7.78;0.80;;;;;;;11.85;75.45;98944.09;5013172;28;20049;-48
2022/11/03 01:44:34;;;;;;;6.18;1.48;;;;;;;11.86;76.37;98950.16;5017789;28;20172;-46
2022/11/03 01:47:08;;;;;;;10.50;1.10;;;;;;;11.86;76.43;98945.84;5014202;28;20057;-51
2022/11/03 01:55:00;;;;;;;7.88;1.33;;;;;;;11.81;75.44;98942.47;5036115;28;20401;-46
2022/11/03 01:57:33;;;;;;;8.38;1.98;;;;;;;11.77;75.37;98931.34;5017714;28;20479;-52
2022/11/03 02:00:01;;;;;;;9.55;0.98;;;;;;;11.78;75.61;98932.19;5015968;28;20445;-48
2022/11/03 02:02:27;;;;;;;10.25;1.80;;;;;;;11.77;76.59;98941.72;5034023;28;20069;-52
2022/11/03 02:04:58;;;;;;;6.32;1.02;;;;;;;11.78;75.17;98935.63;5014916;28;20049;-50
2022/11/03 02:07:34;;;;;;;9.32;1.13;;;;;;;11.77;76.05;98931.34;5015393;28;20113;-51
2022/11/03 02:10:01;;;;;;;6.70;1.48;;;;;;;11.77;75.57;98930.47;5044203;28;20060;-52
2022/11/03 02:12:29;;;;;;;5.20;0.40;;;;;;;11.76;75.08;98932.22;5015538;28;20497;-53
2022/11/03 02:15:03;;;;;;;10.52;0.95;;;;;;;11.76;75.63;98929.63;5012964;28;20154;-49
2022/11/03 02:17:32;;;;;;;8.30;0.95;;;;;;;11.75;75.43;98922.75;5014901;28;20134;-49
2022/11/03 02:27:51;;;;;;;8.70;1.42;;;;;;;11.71;76.07;98928.91;5054034;28;20422;-50
2022/11/03 02:30:18;;;;;;;11.98;1.48;;;;;;;11.70;74.73;98929.78;5003043;28;20056;-49
2022/11/03 02:35:27;;;;;;;18.52;2.95;;;;;;;11.69;75.37;98926.34;5036958;27;20414;-48
2022/11/03 02:37:58;;;;;;;7.70;2.33;;;;;;;11.68;75.16;98916.00;4998311;28;20133;-49
2022/11/03 02:40:29;;;;;;;9.35;1.95;;;;;;;11.67;75.57;98914.31;4996668;28;20080;-49
2022/11/03 02:42:58;;;;;;;10.20;2.47;;;;;;;11.66;75.78;98912.63;4999957;28;20081;-50
2022/11/03 02:45:25;;;;;;;6.15;1.98;;;;;;;11.63;75.82;98903.16;4996463;28;20176;-52
2022/11/03 02:47:55;;;;;;;10.68;2.28;;;;;;;11.62;74.75;98900.63;5024829;28;20137;-49
2022/11/03 02:50:25;;;;;;;;;;;;;;;11.45;75.04;98888.91;4998485;28;20074;-49
2022/11/03 02:52:52;;;;;;;6.78;2.03;;;;;;;11.51;75.03;98883.56;5025174;28;19968;-51
2022/11/03 02:55:31;;;;;;;15.15;2.75;;;;;;;11.51;75.32;98877.53;4996488;28;20070;-48
2022/11/03 02:58:06;;;;;;;9.13;2.10;;;;;;;11.49;75.68;98875.00;4998324;28;20573;-50
2022/11/03 03:00:41;;;;;;;9.55;2.20;;;;;;;11.50;75.07;98861.13;4997217;28;20632;-48
2022/11/03 03:03:16;;;;;;;7.40;2.42;;;;;;;11.48;75.56;98856.88;5001663;28;20179;-50
2022/11/03 03:05:45;;;;;;;9.07;2.80;;;;;;;11.49;75.39;98864.63;4999960;28;20081;-50
2022/11/03 03:08:13;;;;;;;5.88;2.30;;;;;;;11.47;75.52;98856.03;4999629;28;20097;-53
2022/11/03 03:10:44;;;;;;;7.63;1.65;;;;;;;11.46;74.81;98864.69;5000657;28;20129;-50
2022/11/03 03:13:15;;;;;;;11.00;2.60;;;;;;;11.45;74.79;98868.16;5004043;28;20116;-50
2022/11/03 03:16:00;;;;;;;8.40;2.20;;;;;;;11.43;74.90;98869.97;4998479;28;20042;-46
2022/11/03 03:18:36;;;;;;;4.57;1.48;;;;;;;11.40;75.95;98870.03;4999700;28;20639;-50
2022/11/03 03:21:14;;;;;;;9.10;2.15;;;;;;;11.37;75.75;98846.78;5000675;28;20145;-49
2022/11/03 03:23:49;;;;;;;7.00;1.52;;;;;;;11.33;75.93;98848.59;4998244;28;20161;-49
2022/11/03 03:26:24;;;;;;;5.15;2.05;;;;;;;11.30;75.19;98849.53;5000132;28;20133;-51
2022/11/03 03:28:56;;;;;;;8.43;1.98;;;;;;;11.28;75.21;98853.06;4998102;28;21234;-47
2022/11/03 03:31:26;;;;;;;6.10;1.92;;;;;;;11.25;75.83;98841.00;4995894;28;20129;-49
2022/11/03 03:33:56;;;;;;;6.80;1.55;;;;;;;11.22;76.52;98835.06;4999166;28;20521;-49
2022/11/03 03:36:33;;;;;;;7.63;2.28;;;;;;;11.18;75.53;98839.47;4997372;28;24025;-48
2022/11/03 03:39:03;;;;;;;8.15;2.00;;;;;;;11.18;75.25;98818.75;5001036;28;20042;-50
2022/11/03 03:41:31;;;;;;;7.50;0.70;;;;;;;11.18;76.40;98805.78;4997612;28;20575;-49
2022/11/03 03:44:04;;;;;;;4.93;1.80;;;;;;;11.15;75.60;98792.91;5001621;28;20089;-50
2022/11/03 03:46:36;;;;;;;7.57;3.15;;;;;;;11.14;76.36;98775.63;4990050;28;20134;-51
2022/11/03 03:49:04;;;;;;;5.75;1.63;;;;;;;11.13;75.77;98784.31;4984065;28;20158;-51
2022/11/03 03:51:32;;;;;;;5.40;2.55;;;;;;;11.11;75.80;98786.94;4986532;28;20054;-51
2022/11/03 03:53:58;;;;;;;10.25;1.75;;;;;;;11.07;76.01;98794.84;4986605;28;20129;-48
2022/11/03 03:56:32;;;;;;;6.80;2.38;;;;;;;11.04;76.72;98781.06;4982846;28;20060;-50
2022/11/03 03:58:58;;;;;;;7.45;1.85;;;;;;;11.03;75.93;98789.72;4985930;28;20057;-49
2022/11/03 04:01:25;;;;;;;9.13;2.38;;;;;;;11.02;77.29;98797.53;4983222;28;20058;-48
2022/11/03 04:03:52;;;;;;;10.13;1.95;;;;;;;10.98;76.71;98796.75;4987236;28;20049;-46
2022/11/03 04:06:19;;;;;;;7.35;1.90;;;;;;;10.95;77.16;98795.97;4981307;28;20081;-51
2022/11/03 04:08:45;;;;;;;9.95;2.30;;;;;;;10.95;77.55;98796.84;4985952;28;20545;-51
2022/11/03 04:22:18;;;;;;;9.15;1.85;;;;;;;10.76;77.89;98789.50;4981413;28;20185;-51
2022/11/03 04:24:48;;;;;;;5.38;2.35;;;;;;;10.76;77.87;98789.50;4986952;28;20378;-47
2022/11/03 04:32:50;;;;;;;4.43;0.85;;;;;;;10.77;77.99;98798.09;5028462;28;20425;-51
2022/11/03 04:35:20;;;;;;;7.13;0.73;;;;;;;10.78;77.66;98785.13;5019537;28;20069;-48
2022/11/03 04:37:53;;;;;;;8.38;1.67;;;;;;;10.79;77.23;98784.25;5019288;28;20065;-48
2022/11/03 04:40:19;;;;;;;8.93;1.67;;;;;;;10.80;77.98;98773.00;5017861;28;20120;-53
2022/11/03 04:42:46;;;;;;;9.25;1.10;;;;;;;10.82;77.10;98780.75;5011538;28;21889;-49
2022/11/03 04:45:21;;;;;;;6.43;1.38;;;;;;;10.82;77.48;98766.94;5013183;28;22268;-50
2022/11/03 04:47:48;;;;;;;7.65;0.93;;;;;;;10.79;77.40;98766.13;5020249;28;20140;-50
2022/11/03 04:50:19;;;;;;;5.72;1.35;;;;;;;10.78;77.64;98764.41;5015624;28;20133;-50
2022/11/03 04:52:50;;;;;;;11.18;1.65;;;;;;;10.78;77.83;98773.94;5017381;28;20101;-52
2022/11/03 04:55:19;;;;;;;9.85;1.70;;;;;;;10.75;76.84;98763.66;5012162;28;21782;-49
2022/11/03 04:57:46;;;;;;;10.43;1.35;;;;;;;10.73;77.38;98766.28;5015133;28;20133;-50
2022/11/03 05:00:16;;;;;;;9.00;1.10;;;;;;;10.71;77.21;98757.66;5011996;28;20054;-47
2022/11/03 05:02:44;;;;;;;8.88;1.15;;;;;;;10.70;77.85;98755.97;5014940;28;20049;-50
2022/11/03 05:05:17;;;;;;;9.93;1.02;;;;;;;10.67;76.67;98750.88;5012794;28;20052;-49
2022/11/03 05:07:51;;;;;;;8.25;0.60;;;;;;;10.66;76.67;98744.00;5018342;28;20228;-48
2022/11/03 05:10:23;;;;;;;10.43;1.08;;;;;;;10.63;76.81;98747.50;5013258;28;20076;-50
2022/11/03 05:12:50;;;;;;;7.63;1.85;;;;;;;10.59;77.44;98737.25;5015821;28;20125;-49
2022/11/03 05:15:41;;;;;;;8.68;1.13;;;;;;;10.52;76.90;98749.50;5016059;28;20129;-48
2022/11/03 05:18:17;;;;;;;6.60;0.60;;;;;;;10.56;77.11;98742.50;5011568;28;20136;-52
2022/11/03 05:20:48;;;;;;;6.22;0.63;;;;;;;10.58;77.62;98741.59;5015277;28;20453;-49
2022/11/03 05:23:17;;;;;;;2.90;0.75;;;;;;;10.59;77.97;98727.75;5017489;28;20045;-52
2022/11/03 05:25:48;;;;;;;8.48;1.02;;;;;;;10.61;77.57;98725.13;5016012;28;20050;-51
2022/11/03 05:28:21;;;;;;;5.45;0.93;;;;;;;10.62;77.83;98732.88;5013057;28;20573;-48
2022/11/03 05:30:49;;;;;;;7.30;0.93;;;;;;;10.64;76.95;98725.06;5011559;28;20316;-50
2022/11/03 05:33:23;;;;;;;6.25;0.80;;;;;;;10.64;76.75;98725.06;5017698;28;20120;-49
2022/11/03 05:35:50;;;;;;;4.78;0.95;;;;;;;10.63;77.30;98708.69;5018322;28;20045;-49
2022/11/03 05:38:19;;;;;;;9.90;0.88;;;;;;;10.63;77.50;98721.63;5012877;28;20513;-48
2022/11/03 05:40:49;;;;;;;8.57;0.77;;;;;;;10.63;77.64;98718.16;5016257;28;20058;-49
2022/11/03 05:43:17;;;;;;;7.00;0.70;;;;;;;10.62;76.68;98716.47;5005477;28;20054;-50
2022/11/03 05:45:44;;;;;;;7.90;0.60;;;;;;;10.64;76.62;98725.06;4999618;28;20053;-49
2022/11/03 05:48:30;;;;;;;2.40;1.05;;;;;;;10.60;76.96;98715.69;5005085;28;20486;-47
2022/11/03 05:50:59;;;;;;;9.18;0.93;;;;;;;10.60;76.59;98713.91;5002303;28;20139;-49
2022/11/03 05:56:06;;;;;;;7.40;1.83;;;;;;;10.60;77.52;98702.72;5097580;27;20416;-52
2022/11/03 05:58:38;;;;;;;9.35;1.40;;;;;;;10.59;76.92;98701.88;5088526;28;20513;-50
2022/11/03 06:01:14;;;;;;;7.15;1.40;;;;;;;10.58;76.85;98699.31;5094216;28;20060;-49
2022/11/03 06:03:40;;;;;;;3.88;0.75;;;;;;;10.56;77.03;98688.13;5095501;28;20048;-49
2022/11/03 06:06:17;;;;;;;8.02;1.20;;;;;;;10.54;77.64;98689.03;5098823;28;20334;-50
2022/11/03 06:08:44;;;;;;;;;;;;;;;10.43;77.09;98690.16;5097601;28;20068;-48
2022/11/03 06:11:34;;;;;;;7.03;1.13;;;;;;;10.48;77.39;98683.16;5097820;28;19986;-48
2022/11/03 06:14:11;;;;;;;6.65;0.75;;;;;;;10.55;77.32;98689.91;5096795;28;20130;-53
2022/11/03 06:16:41;;;;;;;3.97;0.85;;;;;;;10.55;77.38;98684.72;5099914;28;20052;-53
2022/11/03 06:22:11;;;;;;;12.98;1.33;;;;;;;10.53;77.81;98681.31;5044381;27;20401;-47
2022/11/03 06:24:38;;;;;;;3.28;1.08;;;;;;;10.54;77.61;98688.19;5038152;28;20140;-49
2022/11/03 06:27:04;;;;;;;4.55;0.75;;;;;;;10.53;76.93;98684.75;5035172;28;20045;-48
2022/11/03 06:29:32;;;;;;;4.35;0.80;;;;;;;10.54;77.29;98683.84;5034477;28;20053;-48
2022/11/03 06:31:59;;;;;;;5.07;0.98;;;;;;;10.53;77.17;98676.97;5035425;28;20132;-50
2022/11/03 06:37:24;;;;;;;3.95;1.70;;;;;;;10.49;77.70;98680.53;5055932;28;20411;-50
2022/11/03 06:39:59;;;;;;;7.68;1.67;;;;;;;10.53;77.43;98676.13;5037217;28;20140;-49
2022/11/03 06:42:28;;;;;;;7.13;1.98;;;;;;;10.54;77.63;98668.31;5067372;28;20060;-51
2022/11/03 06:44:57;;;;;;;9.13;0.77;;;;;;;10.54;77.03;98668.31;5041355;28;20765;-52
2022/11/03 06:47:27;;;;;;;5.47;2.38;;;;;;;10.54;77.34;98668.31;5038136;28;20132;-47
2022/11/03 06:49:57;;;;;;;6.43;1.75;;;;;;;10.49;76.96;98659.81;5039008;28;20045;-50
2022/11/03 06:52:28;;;;;;;6.30;1.23;;;;;;;10.49;77.65;98658.97;5035941;28;20076;-50
2022/11/03 06:55:07;;;;;;;6.25;1.10;;;;;;;10.47;77.13;98661.59;5036642;28;20084;-48
2022/11/03 06:57:44;;;;;;;11.55;2.90;;;;;;;10.48;77.89;98658.13;5039021;28;20124;-49
2022/11/03 07:00:24;;;;;;;7.22;1.60;;;;;;;10.46;77.87;98662.47;5034190;28;21348;-49
2022/11/03 07:05:44;;;;;;;4.15;0.90;;;;;;;10.46;77.16;98654.72;5024920;28;20419;-48
2022/11/03 07:11:11;;;;;;;5.70;0.77;;;;;;;10.44;77.53;98646.13;5048145;28;20391;-50
2022/11/03 07:13:38;;;;;;;6.78;0.93;;;;;;;10.44;77.04;98643.53;5020405;28;20080;-48
2022/11/03 07:16:12;;;;;;;4.35;1.08;;;;;;;10.44;77.23;98647.84;5016262;28;20511;-51
2022/11/03 07:18:46;;;;;;;5.18;0.82;;;;;;;10.45;78.11;98637.50;5018970;28;20056;-50
2022/11/03 07:24:04;;;;;;;4.97;2.25;;;;;;;10.43;77.72;98635.81;5032984;28;20413;-49
2022/11/03 07:26:32;;;;;;;9.68;2.83;;;;;;;10.42;77.83;98642.72;5020443;28;20041;-53
2022/11/03 07:28:59;;;;;;;4.45;1.77;;;;;;;10.42;77.52;98640.13;5021465;28;20116;-49
2022/11/03 07:31:26;;;;;;;6.55;2.22;;;;;;;10.41;77.93;98646.19;5019672;28;20052;-53
2022/11/03 07:33:57;;;;;;;6.03;2.10;;;;;;;10.42;77.99;98642.72;5021228;28;20077;-51
2022/11/03 07:36:30;;;;;;;5.05;1.80;;;;;;;10.41;77.19;98644.44;5016164;28;20124;-48
2022/11/03 07:39:00;;;;;;;9.57;2.72;;;;;;;10.43;77.50;98639.22;5011507;28;20050;-48
2022/11/03 07:41:30;;;;;;;;;;;;;;;10.28;77.65;98636.16;5013644;28;20172;-49
2022/11/03 07:44:01;;;;;;;8.45;2.22;;;;;;;10.38;77.83;98639.38;5015065;28;19987;-49
2022/11/03 07:46:28;;;;;;;6.63;1.77;;;;;;;10.41;77.99;98635.84;5017922;28;20133;-48
2022/11/03 07:51:33;;;;;;;3.60;0.95;;;;;;;10.45;77.75;98637.50;5016342;27;20468;-50
2022/11/03 07:54:14;;;;;;;4.60;0.73;;;;;;;10.47;77.57;98633.13;5000376;28;20046;-50
2022/11/03 07:56:45;;;;;;;10.65;0.80;;;;;;;10.47;77.80;98630.53;4994921;28;20618;-53
2022/11/03 07:59:17;;;;;;;4.68;0.82;;;;;;;10.48;77.77;98621.91;4998396;28;20145;-47
2022/11/03 08:02:01;;;;;;;9.13;0.75;;;;;;;10.47;77.80;98622.75;5001027;28;20049;-48
2022/11/03 08:04:31;;;;;;;6.30;0.95;;;;;;;10.53;78.28;98619.16;5001765;28;20626;-49
2022/11/03 08:06:58;;;;;;;6.72;1.08;;;;;;;10.56;77.55;98616.50;5002416;28;20093;-52
2022/11/03 08:09:24;;;;;;;5.70;0.65;;;;;;;10.57;77.55;98625.97;5001413;28;20133;-49
2022/11/03 08:11:52;;;;;;;7.70;0.88;;;;;;;10.60;77.25;98631.06;4998632;28;20513;-48
2022/11/03 08:14:19;;;;;;;5.97;0.65;;;;;;;10.61;77.49;98631.94;5003125;28;20129;-49
2022/11/03 08:16:45;;;;;;;3.58;1.23;;;;;;;10.63;78.21;98630.13;5002407;28;20141;-47
2022/11/03 08:19:12;;;;;;;4.25;0.90;;;;;;;10.65;78.00;98618.00;5002316;28;20073;-52
2022/11/03 08:21:38;;;;;;;5.20;1.00;;;;;;;10.67;77.39;98618.81;4999283;28;20718;-51
2022/11/03 08:24:05;;;;;;;5.88;0.80;;;;;;;10.68;78.06;98607.59;5001861;28;20725;-50
2022/11/03 08:26:32;;;;;;;7.10;1.10;;;;;;;10.69;77.28;98596.31;4996617;28;20053;-52
2022/11/03 08:28:59;;;;;;;6.63;1.08;;;;;;;10.67;78.20;98591.19;4991647;28;20086;-48
2022/11/03 08:31:25;;;;;;;9.63;0.93;;;;;;;10.70;78.60;98592.00;4991224;28;20084;-47
2022/11/03 08:33:52;;;;;;;5.85;0.63;;;;;;;10.73;78.22;98604.84;4998152;28;20121;-49
2022/11/03 08:36:19;;;;;;;9.07;1.20;;;;;;;10.75;77.70;98619.47;4996586;28;20051;-48
2022/11/03 08:38:46;;;;;;;4.93;0.75;;;;;;;10.75;77.67;98619.47;4995690;28;20136;-48
2022/11/03 08:41:13;;;;;;;8.00;0.60;;;;;;;10.75;78.59;98624.66;4993301;28;20038;-50
2022/11/03 08:43:39;;;;;;;4.53;1.35;;;;;;;10.75;77.49;98619.47;4997128;28;20052;-47
2022/11/03 08:46:06;;;;;;;6.90;1.20;;;;;;;10.75;77.22;98616.88;4993950;28;20074;-49
2022/11/03 08:48:44;;;;;;;9.48;1.20;;;;;;;10.74;78.30;98610.00;4989750;28;20066;-48
2022/11/03 08:51:12;;;;;;;5.22;0.95;;;;;;;10.73;78.44;98592.75;4991665;28;20078;-48
2022/11/03 08:53:41;;;;;;;6.63;1.20;;;;;;;10.74;78.25;98591.88;4991980;28;20050;-49
2022/11/03 08:56:08;;;;;;;8.35;1.33;;;;;;;10.73;77.99;98595.34;4994975;28;20057;-50
2022/11/03 08:58:39;;;;;;;6.82;1.00;;;;;;;10.71;77.45;98585.94;4993629;28;20050;-51
2022/11/03 09:01:06;;;;;;;3.75;0.80;;;;;;;10.70;78.00;98599.78;4990274;28;20061;-50
2022/11/03 09:03:33;;;;;;;4.68;0.77;;;;;;;10.70;77.61;98598.00;4978882;28;20053;-50
2022/11/03 09:06:00;;;;;;;4.47;0.82;;;;;;;10.71;78.37;98591.94;4983128;28;20073;-48
2022/11/03 09:08:27;;;;;;;8.27;0.93;;;;;;;10.70;78.23;98584.25;4980801;28;20145;-47
2022/11/03 09:11:13;;;;;;;5.05;0.52;;;;;;;10.65;77.62;98581.75;4977842;28;20662;-50
2022/11/03 09:13:40;;;;;;;4.95;0.50;;;;;;;10.64;77.99;98585.25;4977761;28;20612;-48
2022/11/03 09:16:07;;;;;;;5.70;0.82;;;;;;;10.62;78.25;98577.53;4977359;28;20062;-51
2022/11/03 09:18:33;;;;;;;2.83;0.93;;;;;;;10.61;78.24;98572.38;4977305;28;20154;-50
2022/11/03 09:21:00;;;;;;;6.00;0.73;;;;;;;10.60;77.76;98557.75;4976516;28;20786;-49
2022/11/03 09:23:27;;;;;;;4.55;0.52;;;;;;;10.61;78.04;98564.63;4976328;28;20158;-50
2022/11/03 09:25:53;;;;;;;5.72;0.90;;;;;;;10.63;78.06;98557.63;4980234;28;20136;-48
2022/11/03 09:28:20;;;;;;;7.28;0.80;;;;;;;10.65;77.51;98556.72;4974280;28;20707;-49
2022/11/03 09:30:46;;;;;;;5.47;0.60;;;;;;;10.70;78.45;98559.19;4977566;28;20070;-51
2022/11/03 09:33:14;;;;;;;5.93;0.65;;;;;;;10.72;77.65;98567.75;4976996;28;20082;-51
2022/11/03 09:35:40;;;;;;;3.88;0.68;;;;;;;10.77;78.05;98565.88;4976960;28;20129;-52
2022/11/03 09:38:07;;;;;;;4.18;0.50;;;;;;;10.83;77.78;98571.78;4978611;28;20053;-49
2022/11/03 09:40:34;;;;;;;4.20;0.50;;;;;;;10.87;77.83;98570.81;4975995;28;20070;-50
2022/11/03 09:43:02;;;;;;;7.53;0.50;;;;;;;10.91;77.95;98557.72;4978317;28;20509;-49
2022/11/03 09:45:28;;;;;;;3.75;0.50;;;;;;;10.91;78.23;98562.09;4980927;28;20050;-50
2022/11/03 09:47:55;;;;;;;6.20;0.80;;;;;;;10.92;77.50;98566.38;4975151;28;20046;-48
2022/11/03 09:50:22;;;;;;;5.20;0.40;;;;;;;10.94;77.26;98564.56;4975313;28;20726;-49
2022/11/03 09:52:53;;;;;;;5.10;1.05;;;;;;;10.99;77.70;98570.47;4979211;28;20134;-50
2022/11/03 09:55:23;;;;;;;1.85;0.65;;;;;;;11.05;78.29;98569.47;4980467;28;20042;-47
2022/11/03 09:57:54;;;;;;;3.30;0.55;;;;;;;11.09;78.25;98576.25;4979515;28;20833;-49
2022/11/03 10:00:22;;;;;;;4.32;0.63;;;;;;;11.13;77.64;98566.63;4977739;28;20046;-49
2022/11/03 10:02:50;;;;;;;6.88;0.93;;;;;;;11.16;77.85;98582.09;4979111;28;20049;-51
2022/11/03 10:05:24;;;;;;;5.18;0.55;;;;;;;11.22;78.13;98576.75;4976947;28;20042;-52
2022/11/03 10:07:55;;;;;;;5.97;0.80;;;;;;;11.27;77.27;98581.78;4977759;28;20042;-46
2022/11/03 10:10:22;;;;;;;5.30;0.90;;;;;;;11.29;78.53;98586.00;4981785;28;20478;-49
2022/11/03 10:12:50;;;;;;;4.32;0.63;;;;;;;11.30;77.30;98589.47;4976306;28;20109;-50
2022/11/03 10:15:19;;;;;;;6.43;0.70;;;;;;;11.29;77.92;98588.59;4975736;28;20046;-49
2022/11/03 10:17:49;;;;;;;6.00;0.90;;;;;;;11.30;78.28;98590.34;4974512;28;20579;-51
2022/11/03 10:20:19;;;;;;;3.95;0.88;;;;;;;11.33;77.54;98584.19;4981243;28;20042;-53
2022/11/03 10:22:51;;;;;;;7.15;0.82;;;;;;;11.37;78.36;98584.94;4978999;28;20065;-46
2022/11/03 10:25:38;;;;;;;7.03;0.80;;;;;;;11.38;77.86;98581.47;4976899;28;20131;-47
2022/11/03 10:28:23;;;;;;;4.68;1.00;;;;;;;11.42;78.56;98583.09;4977125;28;20149;-50
2022/11/03 10:33:36;;;;;;;2.00;0.98;;;;;;;11.56;77.26;98574.88;5018600;27;20406;-49
2022/11/03 10:38:38;;;;;;;3.20;0.70;;;;;;;11.62;78.39;98572.09;5033970;27;20410;-49
2022/11/03 10:41:26;;;;;;;3.35;0.80;;;;;;;11.59;78.26;98563.56;5003231;28;20063;-49
2022/11/03 10:46:38;;;;;;;6.53;0.85;;;;;;;11.66;77.31;98572.88;5044176;28;20413;-52
2022/11/03 10:49:21;;;;;;;7.45;1.05;;;;;;;11.68;77.76;98571.06;4978657;28;20049;-48
2022/11/03 10:51:51;;;;;;;4.85;0.80;;;;;;;11.73;77.27;98570.91;4998906;28;20140;-47
2022/11/03 10:54:21;;;;;;;3.95;0.80;;;;;;;11.76;78.19;98566.47;4993469;28;21146;-47
2022/11/03 10:56:49;;;;;;;7.38;1.33;;;;;;;11.81;78.33;98564.59;4992412;28;20185;-51
2022/11/03 10:59:20;;;;;;;3.08;0.95;;;;;;;11.84;78.40;98561.06;4994801;28;20077;-47
2022/11/03 11:01:47;;;;;;;10.57;2.50;;;;;;;11.87;77.92;98562.69;4995718;28;20580;-50
2022/11/03 11:04:16;;;;;;;7.10;2.95;;;;;;;11.88;77.38;98552.28;4992906;28;20053;-48
2022/11/03 11:06:45;;;;;;;4.10;1.17;;;;;;;11.87;76.55;98549.72;4999848;28;20054;-51
2022/11/03 11:09:14;;;;;;;7.72;1.10;;;;;;;11.84;77.00;98542.91;4995383;28;20129;-48
2022/11/03 11:12:00;;;;;;;8.93;1.98;;;;;;;11.84;76.98;98558.47;4995621;28;20138;-47
2022/11/03 11:17:03;;;;;;;10.55;2.47;;;;;;;11.99;77.41;98567.47;5075455;27;20401;-47
2022/11/03 11:20:10;;;;;;;5.43;2.17;;;;;;;12.00;77.72;98556.22;5035134;28;20588;-49
2022/11/03 11:22:36;;;;;;;6.82;2.25;;;;;;;12.08;76.60;98546.47;5064495;28;20045;-51
2022/11/03 11:25:03;;;;;;;4.90;2.25;;;;;;;12.14;77.66;98544.56;5034640;28;20516;-49
2022/11/03 11:41:41;;;;;;;6.78;0.88;;;;;;;12.36;77.33;98512.69;5029094;28;21606;-51
2022/11/03 11:44:39;;;;;;;6.82;1.23;;;;;;;12.33;76.65;98511.88;4993187;28;20169;-50
2022/11/03 11:47:27;;;;;;;8.38;1.77;;;;;;;12.41;76.72;98516.81;4981518;28;20133;-46
2022/11/03 11:50:15;;;;;;;6.70;1.58;;;;;;;12.51;77.21;98512.16;4993755;28;20157;-50
2022/11/03 11:53:01;;;;;;;4.47;1.88;;;;;;;12.65;76.70;98511.66;4993826;28;20066;-51
2022/11/03 11:58:34;;;;;;;10.40;3.55;;;;;;;12.82;76.75;98505.00;5032799;28;20405;-48
2022/11/03 12:01:04;;;;;;;10.20;2.22;;;;;;;12.89;76.49;98503.00;4994764;28;20096;-50
2022/11/03 12:03:44;;;;;;;3.72;1.33;;;;;;;12.93;76.68;98496.78;4984661;28;20058;-53
2022/11/03 12:06:12;;;;;;;4.53;1.40;;;;;;;12.96;76.30;98494.94;4986898;28;20867;-49
2022/11/03 12:08:40;;;;;;;6.28;1.05;;;;;;;12.98;76.27;98494.88;4988621;28;20121;-49
2022/11/03 12:11:09;;;;;;;5.25;1.05;;;;;;;13.03;75.93;98497.31;4983810;28;20061;-51
2022/11/03 12:19:43;;;;;;;5.70;2.33;;;;;;;13.07;75.34;98507.50;5082394;27;20408;-50
2022/11/03 12:24:48;;;;;;;4.63;0.80;;;;;;;13.32;75.11;98498.78;5103760;27;20419;-52
2022/11/03 12:30:05;;;;;;;6.70;1.42;;;;;;;13.52;75.43;98493.72;5067517;27;21715;-51
2022/11/03 12:32:31;;;;;;;4.57;1.25;;;;;;;13.56;74.82;98490.94;5044067;28;20079;-50
2022/11/03 12:35:02;;;;;;;5.13;0.82;;;;;;;13.49;74.21;98484.31;5038068;28;20360;-51
2022/11/03 12:37:28;;;;;;;5.68;1.13;;;;;;;13.45;73.56;98488.72;5053653;28;20116;-55
2022/11/03 12:39:55;;;;;;;4.80;0.88;;;;;;;13.44;72.92;98486.22;5058696;28;20062;-52
2022/11/03 12:42:23;;;;;;;7.65;1.92;;;;;;;13.44;73.75;98481.00;5069337;28;20040;-49
2022/11/03 12:44:51;;;;;;;10.25;3.05;;;;;;;13.47;73.95;98481.72;5067949;28;20064;-53
2022/11/03 12:47:18;;;;;;;3.30;1.10;;;;;;;13.55;74.07;98478.88;5064351;28;20543;-50
2022/11/03 12:49:45;;;;;;;5.70;1.33;;;;;;;13.57;72.99;98476.16;5056672;28;20154;-53
2022/11/03 12:52:11;;;;;;;6.15;0.90;;;;;;;13.54;72.56;98473.72;5072281;28;20097;-49
2022/11/03 12:54:38;;;;;;;5.95;0.80;;;;;;;13.52;73.13;98472.91;5067063;28;20511;-50
2022/11/03 12:57:05;;;;;;;4.93;1.45;;;;;;;13.52;72.52;98481.59;5074815;28;20044;-52
2022/11/03 12:59:31;;;;;;;3.60;1.05;;;;;;;13.54;73.06;98484.94;5070767;28;20131;-45
2022/11/03 13:01:58;;;;;;;4.35;0.60;;;;;;;13.53;72.92;98470.25;5072132;28;20088;-49
2022/11/03 13:04:25;;;;;;;7.70;1.02;;;;;;;13.53;72.87;98480.66;5065384;28;20460;-51
2022/11/03 13:06:51;;;;;;;5.53;1.10;;;;;;;13.52;72.16;98480.72;5068910;28;20082;-51
2022/11/03 13:09:18;;;;;;;5.45;1.52;;;;;;;13.50;72.96;98480.78;5071283;28;20068;-50
2022/11/03 13:14:31;;;;;;;4.53;1.38;;;;;;;13.45;72.81;98483.53;5059249;28;20106;-50
2022/11/03 13:16:57;;;;;;;15.40;3.08;;;;;;;13.47;72.53;98470.47;5056429;28;20068;-51
2022/11/03 13:19:24;;;;;;;3.75;0.70;;;;;;;13.47;71.99;98465.25;5069045;28;20044;-51
2022/11/03 13:21:51;;;;;;;5.07;0.70;;;;;;;13.46;71.51;98463.56;5050522;28;20087;-50
2022/11/03 13:24:18;;;;;;;2.97;0.85;;;;;;;13.43;72.14;98474.94;5050756;28;20053;-49
2022/11/03 13:26:44;;;;;;;4.22;0.65;;;;;;;13.39;71.52;98468.19;5050218;28;20081;-52
2022/11/03 13:29:11;;;;;;;6.00;1.23;;;;;;;13.36;71.54;98474.34;5050040;28;20128;-49